Maersk Rosario — V2BG2 — position and weather

sailwx.info

Track history (hours):
 
Tides and Currents Weather Stations Pressure Air Temp Water Temp Dewpoint Dewpoint Depression Visibility Wind Speed Wind Dir Waves Ship Positions

Maersk Rosario

Last reported at 2017-Apr-25 22:26 UTC. Time now 2017-Apr-26 07:55 UTC.
Position N 35°59' E 013°58'.

Length 161.1 m; beam 25 m; draft 9.5 m.

Type: Cargo ship. MMSI: 304814000.

Date/timePositionNaut miles runAvg speedWind from/ knotsBaromVisibWave heightAir tempDewpointWater temp
2017-Apr-25 22:26N 35°59' E 013°58'915.4
2017-Apr-25 21:52N 35°54' E 014°07'615.5
2017-Apr-25 21:30N 35°51' E 014°13'715.2
2017-Apr-25 21:00N 35°47' E 014°20'  
2017-Apr-20 22:54N 31°20' E 029°55'1214.3
2017-Apr-20 22:04N 31°28' E 030°05'114.2
2017-Apr-20 22:00N 31°29' E 030°06'914.4
2017-Apr-20 21:23N 31°35' E 030°13'4114.2
2017-Apr-20 18:29N 31°45' E 031°00'1314.4
2017-Apr-20 17:33N 31°46' E 031°16'6313.6
2017-Apr-20 12:55N 31°25' E 032°26'612.9
2017-Apr-20 12:29N 31°20' E 032°23'194 6.3
2017-Apr-19 05:37N 33°44' E 034°58'214.2
2017-Apr-19 05:30N 33°45' E 034°60'  
2017-Apr-16 19:17N 33°57' E 035°13'  
Track history (hours):
 
Tides and Currents Weather Stations Pressure Air Temp Water Temp Dewpoint Dewpoint Depression Visibility Wind Speed Wind Dir Waves Ship Positions

Maersk Rosario

Last reported at 2017-Apr-25 22:26 UTC. Time now 2017-Apr-26 07:55 UTC.
Position N 35°59' E 013°58'.

Length 161.1 m; beam 25 m; draft 9.5 m.

Type: Cargo ship. MMSI: 304814000.

Date/timePositionNaut miles runAvg speedWind from/ knotsBaromVisibWave heightAir tempDewpointWater temp
2017-Apr-25 22:26N 35°59' E 013°58'915.4
2017-Apr-25 21:52N 35°54' E 014°07'615.5
2017-Apr-25 21:30N 35°51' E 014°13'715.2
2017-Apr-25 21:00N 35°47' E 014°20'  
2017-Apr-20 22:54N 31°20' E 029°55'1214.3
2017-Apr-20 22:04N 31°28' E 030°05'114.2
2017-Apr-20 22:00N 31°29' E 030°06'914.4
2017-Apr-20 21:23N 31°35' E 030°13'4114.2
2017-Apr-20 18:29N 31°45' E 031°00'1314.4
2017-Apr-20 17:33N 31°46' E 031°16'6313.6
2017-Apr-20 12:55N 31°25' E 032°26'612.9
2017-Apr-20 12:29N 31°20' E 032°23'194 6.3
2017-Apr-19 05:37N 33°44' E 034°58'214.2
2017-Apr-19 05:30N 33°45' E 034°60'  
2017-Apr-16 19:17N 33°57' E 035°13'  

Dump ship's entire track history